Terminal Aerodrome Forecast
Issued by NWS

Home | Current Version | Previous Version | Text Only | Print | Product List | Glossary On
Versions: 1 2 3 4 5 6 7 8 9 10 11 12 13 14 15 16 17 18 19 20
000
FTUS42 TJSJ 260813 AAB
TAFISX
TAF AMD
TISX 260813Z 2608/2706 09010KT P6SM SCT025
     FM261300 11013KT P6SM FEW030 SCT050
     FM262300 08008KT P6SM SCT025=

USA.gov is the U.S. government's official web portal to all federal, state and local government web resources and services.